sensor_id;sensor_type;location;lat;lon;timestamp;P1;durP1;ratioP1;P2;durP2;ratioP2
48241;SDS011;34041;51.812;4.622;2023-03-14T00:01:43;10.93;;;2.90;;
48241;SDS011;34041;51.812;4.622;2023-03-14T00:04:43;9.95;;;2.80;;
48241;SDS011;34041;51.812;4.622;2023-03-14T00:07:44;10.60;;;3.20;;
48241;SDS011;34041;51.812;4.622;2023-03-14T00:10:44;10.23;;;3.23;;
48241;SDS011;34041;51.812;4.622;2023-03-14T00:13:47;9.67;;;3.37;;
48241;SDS011;34041;51.812;4.622;2023-03-14T00:16:48;9.27;;;3.70;;
48241;SDS011;34041;51.812;4.622;2023-03-14T00:19:48;8.02;;;2.63;;
48241;SDS011;34041;51.812;4.622;2023-03-14T00:22:52;7.15;;;2.47;;
48241;SDS011;34041;51.812;4.622;2023-03-14T00:25:52;6.73;;;2.83;;
48241;SDS011;34041;51.812;4.622;2023-03-14T00:28:53;9.40;;;2.60;;
48241;SDS011;34041;51.812;4.622;2023-03-14T00:31:53;6.68;;;2.33;;
48241;SDS011;34041;51.812;4.622;2023-03-14T00:34:54;11.52;;;3.22;;
48241;SDS011;34041;51.812;4.622;2023-03-14T00:37:54;6.80;;;2.27;;
48241;SDS011;34041;51.812;4.622;2023-03-14T00:40:54;6.43;;;2.40;;
48241;SDS011;34041;51.812;4.622;2023-03-14T00:43:54;7.93;;;3.05;;
48241;SDS011;34041;51.812;4.622;2023-03-14T00:46:54;5.70;;;2.17;;
48241;SDS011;34041;51.812;4.622;2023-03-14T00:49:55;8.40;;;2.78;;
48241;SDS011;34041;51.812;4.622;2023-03-14T00:52:55;6.00;;;2.07;;
48241;SDS011;34041;51.812;4.622;2023-03-14T00:55:55;7.13;;;2.50;;
48241;SDS011;34041;51.812;4.622;2023-03-14T00:58:56;8.25;;;2.05;;
48241;SDS011;34041;51.812;4.622;2023-03-14T01:01:56;7.47;;;2.03;;
48241;SDS011;34041;51.812;4.622;2023-03-14T01:04:57;5.68;;;1.95;;
48241;SDS011;34041;51.812;4.622;2023-03-14T01:07:57;5.00;;;2.10;;
48241;SDS011;34041;51.812;4.622;2023-03-14T01:10:57;7.25;;;2.22;;
48241;SDS011;34041;51.812;4.622;2023-03-14T01:13:58;6.27;;;1.80;;
48241;SDS011;34041;51.812;4.622;2023-03-14T01:16:58;5.47;;;1.75;;
48241;SDS011;34041;51.812;4.622;2023-03-14T01:20:00;5.20;;;1.85;;
48241;SDS011;34041;51.812;4.622;2023-03-14T01:23:01;7.25;;;3.63;;
48241;SDS011;34041;51.812;4.622;2023-03-14T01:26:01;6.22;;;1.73;;
48241;SDS011;34041;51.812;4.622;2023-03-14T01:29:01;9.10;;;2.53;;
48241;SDS011;34041;51.812;4.622;2023-03-14T01:32:02;8.70;;;1.98;;
48241;SDS011;34041;51.812;4.622;2023-03-14T01:35:02;9.10;;;1.90;;
48241;SDS011;34041;51.812;4.622;2023-03-14T01:38:02;5.68;;;2.20;;
48241;SDS011;34041;51.812;4.622;2023-03-14T01:41:03;5.63;;;1.57;;
48241;SDS011;34041;51.812;4.622;2023-03-14T01:44:03;5.38;;;2.10;;
48241;SDS011;34041;51.812;4.622;2023-03-14T01:47:03;9.18;;;2.33;;
48241;SDS011;34041;51.812;4.622;2023-03-14T01:50:04;6.43;;;1.67;;
48241;SDS011;34041;51.812;4.622;2023-03-14T01:53:06;4.45;;;1.55;;
48241;SDS011;34041;51.812;4.622;2023-03-14T01:56:08;5.82;;;1.63;;
48241;SDS011;34041;51.812;4.622;2023-03-14T01:59:09;6.60;;;1.88;;
48241;SDS011;34041;51.812;4.622;2023-03-14T02:02:10;5.15;;;2.20;;
48241;SDS011;34041;51.812;4.622;2023-03-14T02:05:12;4.30;;;1.65;;
48241;SDS011;34041;51.812;4.622;2023-03-14T02:08:15;5.57;;;1.80;;
48241;SDS011;34041;51.812;4.622;2023-03-14T02:11:16;4.93;;;1.45;;
48241;SDS011;34041;51.812;4.622;2023-03-14T02:14:49;5.18;;;1.95;;
48241;SDS011;34041;51.812;4.622;2023-03-14T02:17:47;5.82;;;2.05;;
48241;SDS011;34041;51.812;4.622;2023-03-14T02:24:07;4.15;;;1.27;;
48241;SDS011;34041;51.812;4.622;2023-03-14T02:27:10;5.18;;;1.35;;
48241;SDS011;34041;51.812;4.622;2023-03-14T02:30:12;4.70;;;2.03;;
48241;SDS011;34041;51.812;4.622;2023-03-14T02:33:15;4.78;;;1.40;;
48241;SDS011;34041;51.812;4.622;2023-03-14T02:36:15;6.55;;;1.52;;
48241;SDS011;34041;51.812;4.622;2023-03-14T02:39:22;4.75;;;1.75;;
48241;SDS011;34041;51.812;4.622;2023-03-14T02:42:24;5.05;;;1.58;;
48241;SDS011;34041;51.812;4.622;2023-03-14T02:48:26;5.60;;;1.30;;
48241;SDS011;34041;51.812;4.622;2023-03-14T02:51:26;6.68;;;2.35;;
48241;SDS011;34041;51.812;4.622;2023-03-14T02:54:27;4.28;;;1.70;;
48241;SDS011;34041;51.812;4.622;2023-03-14T02:57:27;6.47;;;1.53;;
48241;SDS011;34041;51.812;4.622;2023-03-14T03:00:27;4.83;;;1.70;;
48241;SDS011;34041;51.812;4.622;2023-03-14T03:03:30;8.63;;;1.88;;
48241;SDS011;34041;51.812;4.622;2023-03-14T03:06:30;5.30;;;1.50;;
48241;SDS011;34041;51.812;4.622;2023-03-14T03:09:31;4.60;;;1.10;;
48241;SDS011;34041;51.812;4.622;2023-03-14T03:12:31;6.43;;;1.40;;
48241;SDS011;34041;51.812;4.622;2023-03-14T03:15:31;7.10;;;2.47;;
48241;SDS011;34041;51.812;4.622;2023-03-14T03:18:31;9.20;;;1.90;;
48241;SDS011;34041;51.812;4.622;2023-03-14T03:21:31;8.27;;;1.90;;
48241;SDS011;34041;51.812;4.622;2023-03-14T03:24:32;6.07;;;1.77;;
48241;SDS011;34041;51.812;4.622;2023-03-14T03:27:32;4.37;;;1.53;;
48241;SDS011;34041;51.812;4.622;2023-03-14T03:30:36;4.47;;;1.05;;
48241;SDS011;34041;51.812;4.622;2023-03-14T03:33:37;3.75;;;1.35;;
48241;SDS011;34041;51.812;4.622;2023-03-14T03:36:37;2.97;;;1.23;;
48241;SDS011;34041;51.812;4.622;2023-03-14T03:39:38;4.38;;;1.23;;
48241;SDS011;34041;51.812;4.622;2023-03-14T03:42:38;6.27;;;1.87;;
48241;SDS011;34041;51.812;4.622;2023-03-14T03:45:38;7.40;;;2.20;;
48241;SDS011;34041;51.812;4.622;2023-03-14T03:48:38;5.07;;;1.83;;
48241;SDS011;34041;51.812;4.622;2023-03-14T03:51:39;4.00;;;1.30;;
48241;SDS011;34041;51.812;4.622;2023-03-14T03:54:40;5.55;;;1.50;;
48241;SDS011;34041;51.812;4.622;2023-03-14T03:57:40;7.40;;;1.93;;
48241;SDS011;34041;51.812;4.622;2023-03-14T04:00:40;5.17;;;1.53;;
48241;SDS011;34041;51.812;4.622;2023-03-14T04:03:40;5.00;;;1.27;;
48241;SDS011;34041;51.812;4.622;2023-03-14T04:06:41;5.03;;;1.60;;
48241;SDS011;34041;51.812;4.622;2023-03-14T04:09:41;4.15;;;1.25;;
48241;SDS011;34041;51.812;4.622;2023-03-14T04:12:42;5.57;;;1.42;;
48241;SDS011;34041;51.812;4.622;2023-03-14T04:15:42;3.87;;;1.47;;
48241;SDS011;34041;51.812;4.622;2023-03-14T04:18:42;5.03;;;2.20;;
48241;SDS011;34041;51.812;4.622;2023-03-14T04:21:42;4.43;;;1.40;;
48241;SDS011;34041;51.812;4.622;2023-03-14T04:24:45;7.00;;;2.03;;
48241;SDS011;34041;51.812;4.622;2023-03-14T04:27:46;6.57;;;1.63;;
48241;SDS011;34041;51.812;4.622;2023-03-14T04:30:46;8.52;;;2.10;;
48241;SDS011;34041;51.812;4.622;2023-03-14T04:33:46;4.00;;;1.87;;
48241;SDS011;34041;51.812;4.622;2023-03-14T04:36:46;5.43;;;1.73;;
48241;SDS011;34041;51.812;4.622;2023-03-14T04:39:47;5.23;;;1.07;;
48241;SDS011;34041;51.812;4.622;2023-03-14T04:42:47;4.17;;;1.40;;
48241;SDS011;34041;51.812;4.622;2023-03-14T04:45:47;5.40;;;1.87;;
48241;SDS011;34041;51.812;4.622;2023-03-14T04:48:47;5.03;;;1.90;;
48241;SDS011;34041;51.812;4.622;2023-03-14T04:51:48;4.25;;;1.40;;
48241;SDS011;34041;51.812;4.622;2023-03-14T04:54:50;3.65;;;1.20;;
48241;SDS011;34041;51.812;4.622;2023-03-14T04:57:50;2.95;;;1.27;;
48241;SDS011;34041;51.812;4.622;2023-03-14T05:00:51;3.90;;;1.23;;
48241;SDS011;34041;51.812;4.622;2023-03-14T05:03:51;3.03;;;1.08;;
48241;SDS011;34041;51.812;4.622;2023-03-14T05:06:51;3.40;;;1.40;;
48241;SDS011;34041;51.812;4.622;2023-03-14T05:09:52;4.07;;;1.40;;
48241;SDS011;34041;51.812;4.622;2023-03-14T05:12:53;6.38;;;1.38;;
48241;SDS011;34041;51.812;4.622;2023-03-14T05:15:53;3.17;;;1.13;;
48241;SDS011;34041;51.812;4.622;2023-03-14T05:18:55;4.82;;;1.75;;
48241;SDS011;34041;51.812;4.622;2023-03-14T05:21:55;2.80;;;1.13;;
48241;SDS011;34041;51.812;4.622;2023-03-14T05:24:56;5.13;;;1.20;;
48241;SDS011;34041;51.812;4.622;2023-03-14T05:27:58;4.55;;;0.93;;
48241;SDS011;34041;51.812;4.622;2023-03-14T05:30:58;3.90;;;1.37;;
48241;SDS011;34041;51.812;4.622;2023-03-14T05:33:59;3.07;;;1.20;;
48241;SDS011;34041;51.812;4.622;2023-03-14T05:36:59;3.03;;;1.53;;
48241;SDS011;34041;51.812;4.622;2023-03-14T05:39:59;1.95;;;1.05;;
48241;SDS011;34041;51.812;4.622;2023-03-14T05:42:59;5.67;;;1.73;;
48241;SDS011;34041;51.812;4.622;2023-03-14T05:45:59;3.87;;;1.53;;
48241;SDS011;34041;51.812;4.622;2023-03-14T05:49:00;4.95;;;1.55;;
48241;SDS011;34041;51.812;4.622;2023-03-14T05:52:00;3.07;;;1.20;;
48241;SDS011;34041;51.812;4.622;2023-03-14T05:55:00;2.80;;;1.50;;
48241;SDS011;34041;51.812;4.622;2023-03-14T05:58:00;2.73;;;1.13;;
48241;SDS011;34041;51.812;4.622;2023-03-14T06:01:02;3.60;;;1.47;;
48241;SDS011;34041;51.812;4.622;2023-03-14T06:04:02;2.22;;;1.08;;
48241;SDS011;34041;51.812;4.622;2023-03-14T06:07:02;4.00;;;1.33;;
48241;SDS011;34041;51.812;4.622;2023-03-14T06:10:03;3.50;;;1.25;;
48241;SDS011;34041;51.812;4.622;2023-03-14T06:13:03;2.33;;;1.05;;
48241;SDS011;34041;51.812;4.622;2023-03-14T06:16:04;3.40;;;1.90;;
48241;SDS011;34041;51.812;4.622;2023-03-14T06:19:04;5.90;;;1.48;;
48241;SDS011;34041;51.812;4.622;2023-03-14T06:22:04;2.72;;;1.17;;
48241;SDS011;34041;51.812;4.622;2023-03-14T06:25:05;3.47;;;1.47;;
48241;SDS011;34041;51.812;4.622;2023-03-14T06:28:05;5.28;;;1.15;;
48241;SDS011;34041;51.812;4.622;2023-03-14T06:31:05;2.80;;;0.98;;
48241;SDS011;34041;51.812;4.622;2023-03-14T06:34:05;2.00;;;0.77;;
48241;SDS011;34041;51.812;4.622;2023-03-14T06:37:06;2.92;;;1.40;;
48241;SDS011;34041;51.812;4.622;2023-03-14T06:40:06;4.63;;;1.20;;
48241;SDS011;34041;51.812;4.622;2023-03-14T06:43:07;1.77;;;1.02;;
48241;SDS011;34041;51.812;4.622;2023-03-14T06:46:07;5.17;;;1.33;;
48241;SDS011;34041;51.812;4.622;2023-03-14T06:49:07;1.60;;;0.70;;
48241;SDS011;34041;51.812;4.622;2023-03-14T06:52:08;2.25;;;0.95;;
48241;SDS011;34041;51.812;4.622;2023-03-14T06:55:08;5.13;;;1.43;;
48241;SDS011;34041;51.812;4.622;2023-03-14T06:58:09;1.73;;;0.80;;
48241;SDS011;34041;51.812;4.622;2023-03-14T07:01:17;4.63;;;1.00;;
48241;SDS011;34041;51.812;4.622;2023-03-14T07:04:17;4.38;;;0.80;;
48241;SDS011;34041;51.812;4.622;2023-03-14T07:07:17;4.03;;;1.30;;
48241;SDS011;34041;51.812;4.622;2023-03-14T07:10:18;2.33;;;0.80;;
48241;SDS011;34041;51.812;4.622;2023-03-14T07:13:18;2.58;;;0.98;;
48241;SDS011;34041;51.812;4.622;2023-03-14T07:16:18;4.45;;;0.93;;
48241;SDS011;34041;51.812;4.622;2023-03-14T07:19:19;1.60;;;0.68;;
48241;SDS011;34041;51.812;4.622;2023-03-14T07:22:20;1.47;;;0.50;;
48241;SDS011;34041;51.812;4.622;2023-03-14T07:25:20;3.40;;;0.83;;
48241;SDS011;34041;51.812;4.622;2023-03-14T07:28:20;3.03;;;0.50;;
48241;SDS011;34041;51.812;4.622;2023-03-14T07:31:20;4.40;;;1.05;;
48241;SDS011;34041;51.812;4.622;2023-03-14T07:34:21;2.87;;;0.80;;
48241;SDS011;34041;51.812;4.622;2023-03-14T07:37:21;3.22;;;1.13;;
48241;SDS011;34041;51.812;4.622;2023-03-14T07:40:21;2.53;;;0.65;;
48241;SDS011;34041;51.812;4.622;2023-03-14T07:43:21;3.60;;;1.10;;
48241;SDS011;34041;51.812;4.622;2023-03-14T07:46:22;2.50;;;0.90;;
48241;SDS011;34041;51.812;4.622;2023-03-14T07:49:22;2.00;;;0.82;;
48241;SDS011;34041;51.812;4.622;2023-03-14T07:52:22;3.50;;;1.10;;
48241;SDS011;34041;51.812;4.622;2023-03-14T07:55:24;2.97;;;0.82;;
48241;SDS011;34041;51.812;4.622;2023-03-14T07:58:24;2.23;;;0.80;;
48241;SDS011;34041;51.812;4.622;2023-03-14T08:01:24;2.25;;;0.85;;
48241;SDS011;34041;51.812;4.622;2023-03-14T08:04:24;2.63;;;1.03;;
48241;SDS011;34041;51.812;4.622;2023-03-14T08:07:25;2.63;;;1.00;;
48241;SDS011;34041;51.812;4.622;2023-03-14T08:10:25;1.57;;;0.70;;
48241;SDS011;34041;51.812;4.622;2023-03-14T08:13:25;1.63;;;0.73;;
48241;SDS011;34041;51.812;4.622;2023-03-14T08:16:25;1.57;;;0.50;;
48241;SDS011;34041;51.812;4.622;2023-03-14T08:19:25;4.43;;;1.20;;
48241;SDS011;34041;51.812;4.622;2023-03-14T08:22:26;1.43;;;0.63;;
48241;SDS011;34041;51.812;4.622;2023-03-14T08:25:26;3.23;;;0.73;;
48241;SDS011;34041;51.812;4.622;2023-03-14T08:28:27;2.15;;;0.80;;
48241;SDS011;34041;51.812;4.622;2023-03-14T08:31:30;2.95;;;0.98;;
48241;SDS011;34041;51.812;4.622;2023-03-14T08:34:32;4.73;;;1.30;;
48241;SDS011;34041;51.812;4.622;2023-03-14T08:37:32;3.78;;;0.90;;
48241;SDS011;34041;51.812;4.622;2023-03-14T08:40:33;2.22;;;0.63;;
48241;SDS011;34041;51.812;4.622;2023-03-14T08:43:33;2.90;;;1.07;;
48241;SDS011;34041;51.812;4.622;2023-03-14T08:46:33;2.22;;;0.80;;
48241;SDS011;34041;51.812;4.622;2023-03-14T08:49:33;2.13;;;0.90;;
48241;SDS011;34041;51.812;4.622;2023-03-14T08:52:34;6.17;;;0.90;;
48241;SDS011;34041;51.812;4.622;2023-03-14T08:55:34;1.65;;;0.70;;
48241;SDS011;34041;51.812;4.622;2023-03-14T08:58:34;2.87;;;0.70;;
48241;SDS011;34041;51.812;4.622;2023-03-14T09:01:37;3.33;;;1.00;;
48241;SDS011;34041;51.812;4.622;2023-03-14T09:04:37;2.67;;;0.85;;
48241;SDS011;34041;51.812;4.622;2023-03-14T09:07:37;4.90;;;0.97;;
48241;SDS011;34041;51.812;4.622;2023-03-14T09:10:38;2.08;;;0.80;;
48241;SDS011;34041;51.812;4.622;2023-03-14T09:13:38;4.25;;;0.90;;
48241;SDS011;34041;51.812;4.622;2023-03-14T09:16:38;2.08;;;1.13;;
48241;SDS011;34041;51.812;4.622;2023-03-14T09:19:39;3.40;;;0.93;;
48241;SDS011;34041;51.812;4.622;2023-03-14T09:22:40;2.85;;;1.13;;
48241;SDS011;34041;51.812;4.622;2023-03-14T09:25:40;4.10;;;0.88;;
48241;SDS011;34041;51.812;4.622;2023-03-14T09:28:40;2.10;;;1.02;;
48241;SDS011;34041;51.812;4.622;2023-03-14T09:31:41;4.43;;;0.90;;
48241;SDS011;34041;51.812;4.622;2023-03-14T09:34:41;2.47;;;0.90;;
48241;SDS011;34041;51.812;4.622;2023-03-14T09:37:41;3.03;;;0.70;;
48241;SDS011;34041;51.812;4.622;2023-03-14T09:40:41;2.13;;;0.80;;
48241;SDS011;34041;51.812;4.622;2023-03-14T09:43:42;3.30;;;0.90;;
48241;SDS011;34041;51.812;4.622;2023-03-14T09:46:44;4.07;;;1.10;;
48241;SDS011;34041;51.812;4.622;2023-03-14T09:49:45;2.75;;;0.90;;
48241;SDS011;34041;51.812;4.622;2023-03-14T09:52:46;2.28;;;0.93;;
48241;SDS011;34041;51.812;4.622;2023-03-14T09:55:48;5.80;;;1.20;;
48241;SDS011;34041;51.812;4.622;2023-03-14T09:58:55;5.32;;;1.40;;
48241;SDS011;34041;51.812;4.622;2023-03-14T10:01:59;6.60;;;1.88;;
48241;SDS011;34041;51.812;4.622;2023-03-14T10:05:00;8.73;;;2.13;;
48241;SDS011;34041;51.812;4.622;2023-03-14T10:08:00;5.32;;;1.77;;
48241;SDS011;34041;51.812;4.622;2023-03-14T10:11:00;9.30;;;1.80;;
48241;SDS011;34041;51.812;4.622;2023-03-14T10:14:09;5.45;;;1.88;;
48241;SDS011;34041;51.812;4.622;2023-03-14T10:17:13;8.02;;;1.45;;
48241;SDS011;34041;51.812;4.622;2023-03-14T10:20:26;5.43;;;1.65;;
48241;SDS011;34041;51.812;4.622;2023-03-14T10:23:27;9.93;;;1.88;;
48241;SDS011;34041;51.812;4.622;2023-03-14T10:26:28;6.70;;;2.55;;
48241;SDS011;34041;51.812;4.622;2023-03-14T10:29:30;5.88;;;2.97;;
48241;SDS011;34041;51.812;4.622;2023-03-14T10:32:34;9.10;;;2.95;;
48241;SDS011;34041;51.812;4.622;2023-03-14T10:35:35;6.70;;;1.80;;
48241;SDS011;34041;51.812;4.622;2023-03-14T10:38:36;10.10;;;2.17;;
48241;SDS011;34041;51.812;4.622;2023-03-14T10:41:36;7.75;;;2.22;;
48241;SDS011;34041;51.812;4.622;2023-03-14T10:44:36;9.70;;;2.10;;
48241;SDS011;34041;51.812;4.622;2023-03-14T10:47:38;6.13;;;1.65;;
48241;SDS011;34041;51.812;4.622;2023-03-14T10:50:59;5.88;;;2.08;;
48241;SDS011;34041;51.812;4.622;2023-03-14T10:54:02;9.13;;;2.42;;
48241;SDS011;34041;51.812;4.622;2023-03-14T10:57:03;8.43;;;2.20;;
48241;SDS011;34041;51.812;4.622;2023-03-14T11:00:05;7.57;;;2.17;;
48241;SDS011;34041;51.812;4.622;2023-03-14T11:03:09;11.77;;;1.70;;
48241;SDS011;34041;51.812;4.622;2023-03-14T11:06:56;7.85;;;2.05;;
48241;SDS011;34041;51.812;4.622;2023-03-14T11:09:36;8.93;;;2.42;;
48241;SDS011;34041;51.812;4.622;2023-03-14T11:28:29;11.57;;;3.28;;
48241;SDS011;34041;51.812;4.622;2023-03-14T11:31:27;7.95;;;2.03;;
48241;SDS011;34041;51.812;4.622;2023-03-14T11:34:29;8.65;;;2.30;;
48241;SDS011;34041;51.812;4.622;2023-03-14T11:37:35;5.88;;;1.88;;
48241;SDS011;34041;51.812;4.622;2023-03-14T11:40:37;9.45;;;2.22;;
48241;SDS011;34041;51.812;4.622;2023-03-14T11:43:39;10.40;;;3.13;;
48241;SDS011;34041;51.812;4.622;2023-03-14T11:46:44;8.18;;;2.08;;
48241;SDS011;34041;51.812;4.622;2023-03-14T11:53:07;6.95;;;2.08;;
48241;SDS011;34041;51.812;4.622;2023-03-14T11:56:11;8.93;;;3.22;;
48241;SDS011;34041;51.812;4.622;2023-03-14T11:59:18;10.55;;;2.70;;
48241;SDS011;34041;51.812;4.622;2023-03-14T12:14:35;7.72;;;2.30;;
48241;SDS011;34041;51.812;4.622;2023-03-14T12:20:37;7.47;;;2.22;;
48241;SDS011;34041;51.812;4.622;2023-03-14T12:23:43;12.90;;;2.22;;
48241;SDS011;34041;51.812;4.622;2023-03-14T12:26:49;6.40;;;1.80;;
48241;SDS011;34041;51.812;4.622;2023-03-14T12:30:00;8.00;;;1.90;;
48241;SDS011;34041;51.812;4.622;2023-03-14T12:36:11;10.07;;;2.03;;
48241;SDS011;34041;51.812;4.622;2023-03-14T12:39:56;7.25;;;1.60;;
48241;SDS011;34041;51.812;4.622;2023-03-14T12:42:37;7.13;;;1.98;;
48241;SDS011;34041;51.812;4.622;2023-03-14T12:45:38;6.47;;;1.80;;
48241;SDS011;34041;51.812;4.622;2023-03-14T12:48:39;6.20;;;1.98;;
48241;SDS011;34041;51.812;4.622;2023-03-14T12:51:40;6.68;;;2.10;;
48241;SDS011;34041;51.812;4.622;2023-03-14T12:54:47;6.65;;;2.53;;
48241;SDS011;34041;51.812;4.622;2023-03-14T12:57:54;4.90;;;1.63;;
48241;SDS011;34041;51.812;4.622;2023-03-14T13:01:02;6.18;;;2.08;;
48241;SDS011;34041;51.812;4.622;2023-03-14T13:04:09;9.27;;;2.55;;
48241;SDS011;34041;51.812;4.622;2023-03-14T13:07:12;5.78;;;1.70;;
48241;SDS011;34041;51.812;4.622;2023-03-14T13:10:22;8.65;;;2.67;;
48241;SDS011;34041;51.812;4.622;2023-03-14T13:13:23;5.45;;;2.35;;
48241;SDS011;34041;51.812;4.622;2023-03-14T13:16:27;6.25;;;1.40;;
48241;SDS011;34041;51.812;4.622;2023-03-14T13:19:28;5.43;;;1.92;;
48241;SDS011;34041;51.812;4.622;2023-03-14T13:22:30;5.10;;;1.70;;
48241;SDS011;34041;51.812;4.622;2023-03-14T13:25:32;4.90;;;1.55;;
48241;SDS011;34041;51.812;4.622;2023-03-14T13:28:32;4.32;;;1.52;;
48241;SDS011;34041;51.812;4.622;2023-03-14T13:31:34;7.55;;;1.98;;
48241;SDS011;34041;51.812;4.622;2023-03-14T13:34:34;4.50;;;1.35;;
48241;SDS011;34041;51.812;4.622;2023-03-14T13:37:38;5.82;;;1.38;;
48241;SDS011;34041;51.812;4.622;2023-03-14T13:40:39;6.23;;;1.67;;
48241;SDS011;34041;51.812;4.622;2023-03-14T13:43:43;5.88;;;1.73;;
48241;SDS011;34041;51.812;4.622;2023-03-14T13:46:43;4.25;;;1.63;;
48241;SDS011;34041;51.812;4.622;2023-03-14T13:49:44;5.47;;;1.67;;
48241;SDS011;34041;51.812;4.622;2023-03-14T13:52:44;3.95;;;1.25;;
48241;SDS011;34041;51.812;4.622;2023-03-14T13:55:46;4.90;;;1.80;;
48241;SDS011;34041;51.812;4.622;2023-03-14T13:58:46;3.75;;;0.88;;
48241;SDS011;34041;51.812;4.622;2023-03-14T14:01:47;6.43;;;1.73;;
48241;SDS011;34041;51.812;4.622;2023-03-14T14:04:48;3.88;;;1.20;;
48241;SDS011;34041;51.812;4.622;2023-03-14T14:07:48;6.28;;;1.73;;
48241;SDS011;34041;51.812;4.622;2023-03-14T14:10:49;3.53;;;1.23;;
48241;SDS011;34041;51.812;4.622;2023-03-14T14:13:49;6.20;;;1.52;;
48241;SDS011;34041;51.812;4.622;2023-03-14T14:16:50;4.28;;;2.22;;
48241;SDS011;34041;51.812;4.622;2023-03-14T14:19:51;5.68;;;1.75;;
48241;SDS011;34041;51.812;4.622;2023-03-14T14:22:52;6.80;;;1.30;;
48241;SDS011;34041;51.812;4.622;2023-03-14T14:25:52;3.60;;;1.20;;
48241;SDS011;34041;51.812;4.622;2023-03-14T14:29:03;3.05;;;1.20;;
48241;SDS011;34041;51.812;4.622;2023-03-14T14:35:07;4.07;;;1.40;;
48241;SDS011;34041;51.812;4.622;2023-03-14T14:38:12;5.43;;;1.45;;
48241;SDS011;34041;51.812;4.622;2023-03-14T14:41:12;6.03;;;1.83;;
48241;SDS011;34041;51.812;4.622;2023-03-14T14:44:13;5.63;;;2.30;;
48241;SDS011;34041;51.812;4.622;2023-03-14T14:47:16;5.43;;;1.98;;
48241;SDS011;34041;51.812;4.622;2023-03-14T14:56:28;5.25;;;1.40;;
48241;SDS011;34041;51.812;4.622;2023-03-14T14:59:28;6.97;;;1.80;;
48241;SDS011;34041;51.812;4.622;2023-03-14T15:02:36;6.20;;;1.67;;
48241;SDS011;34041;51.812;4.622;2023-03-14T15:05:39;5.30;;;1.83;;
48241;SDS011;34041;51.812;4.622;2023-03-14T15:08:40;5.35;;;1.25;;
48241;SDS011;34041;51.812;4.622;2023-03-14T15:11:40;4.60;;;1.43;;
48241;SDS011;34041;51.812;4.622;2023-03-14T15:14:40;7.20;;;2.57;;
48241;SDS011;34041;51.812;4.622;2023-03-14T15:17:40;4.40;;;1.20;;
48241;SDS011;34041;51.812;4.622;2023-03-14T15:20:41;3.63;;;1.40;;
48241;SDS011;34041;51.812;4.622;2023-03-14T15:23:41;6.43;;;1.50;;
48241;SDS011;34041;51.812;4.622;2023-03-14T15:26:42;8.10;;;1.93;;
48241;SDS011;34041;51.812;4.622;2023-03-14T15:29:44;5.47;;;1.63;;
48241;SDS011;34041;51.812;4.622;2023-03-14T15:32:44;7.13;;;1.83;;
48241;SDS011;34041;51.812;4.622;2023-03-14T15:35:44;4.95;;;1.77;;
48241;SDS011;34041;51.812;4.622;2023-03-14T15:38:45;3.95;;;1.23;;
48241;SDS011;34041;51.812;4.622;2023-03-14T15:41:45;6.93;;;1.37;;
48241;SDS011;34041;51.812;4.622;2023-03-14T15:44:45;4.17;;;1.30;;
48241;SDS011;34041;51.812;4.622;2023-03-14T15:47:45;7.13;;;2.10;;
48241;SDS011;34041;51.812;4.622;2023-03-14T15:50:46;4.00;;;1.33;;
48241;SDS011;34041;51.812;4.622;2023-03-14T15:53:46;5.50;;;1.60;;
48241;SDS011;34041;51.812;4.622;2023-03-14T15:56:46;3.70;;;1.10;;
48241;SDS011;34041;51.812;4.622;2023-03-14T15:59:47;4.13;;;1.00;;
48241;SDS011;34041;51.812;4.622;2023-03-14T16:02:47;3.43;;;1.27;;
48241;SDS011;34041;51.812;4.622;2023-03-14T16:05:48;5.35;;;1.95;;
48241;SDS011;34041;51.812;4.622;2023-03-14T16:08:48;4.03;;;1.52;;
48241;SDS011;34041;51.812;4.622;2023-03-14T16:11:48;3.97;;;1.15;;
48241;SDS011;34041;51.812;4.622;2023-03-14T16:14:48;3.70;;;1.35;;
48241;SDS011;34041;51.812;4.622;2023-03-14T16:17:52;10.07;;;4.77;;
48241;SDS011;34041;51.812;4.622;2023-03-14T16:20:57;15.65;;;7.60;;
48241;SDS011;34041;51.812;4.622;2023-03-14T16:23:57;14.88;;;8.40;;
48241;SDS011;34041;51.812;4.622;2023-03-14T16:26:57;14.67;;;7.60;;
48241;SDS011;34041;51.812;4.622;2023-03-14T16:29:58;21.07;;;7.63;;
48241;SDS011;34041;51.812;4.622;2023-03-14T16:33:02;12.52;;;6.75;;
48241;SDS011;34041;51.812;4.622;2023-03-14T16:36:03;16.95;;;7.03;;
48241;SDS011;34041;51.812;4.622;2023-03-14T16:39:10;18.58;;;7.82;;
48241;SDS011;34041;51.812;4.622;2023-03-14T16:42:11;18.83;;;7.23;;
48241;SDS011;34041;51.812;4.622;2023-03-14T16:45:11;9.00;;;5.45;;
48241;SDS011;34041;51.812;4.622;2023-03-14T16:48:11;15.27;;;5.63;;
48241;SDS011;34041;51.812;4.622;2023-03-14T16:51:12;16.90;;;5.97;;
48241;SDS011;34041;51.812;4.622;2023-03-14T16:54:13;15.80;;;5.13;;
48241;SDS011;34041;51.812;4.622;2023-03-14T16:57:13;12.20;;;4.80;;
48241;SDS011;34041;51.812;4.622;2023-03-14T17:00:13;11.97;;;4.83;;
48241;SDS011;34041;51.812;4.622;2023-03-14T17:03:14;7.80;;;4.55;;
48241;SDS011;34041;51.812;4.622;2023-03-14T17:06:16;10.20;;;4.43;;
48241;SDS011;34041;51.812;4.622;2023-03-14T17:09:16;9.85;;;3.85;;
48241;SDS011;34041;51.812;4.622;2023-03-14T17:12:17;10.70;;;3.43;;
48241;SDS011;34041;51.812;4.622;2023-03-14T17:15:17;7.90;;;4.03;;
48241;SDS011;34041;51.812;4.622;2023-03-14T17:18:17;11.57;;;3.75;;
48241;SDS011;34041;51.812;4.622;2023-03-14T17:21:17;7.33;;;3.20;;
48241;SDS011;34041;51.812;4.622;2023-03-14T17:24:18;10.98;;;2.90;;
48241;SDS011;34041;51.812;4.622;2023-03-14T17:27:18;6.07;;;3.30;;
48241;SDS011;34041;51.812;4.622;2023-03-14T17:30:19;7.00;;;3.83;;
48241;SDS011;34041;51.812;4.622;2023-03-14T17:33:19;7.80;;;3.03;;
48241;SDS011;34041;51.812;4.622;2023-03-14T17:36:20;9.10;;;3.43;;
48241;SDS011;34041;51.812;4.622;2023-03-14T17:39:24;6.93;;;2.50;;
48241;SDS011;34041;51.812;4.622;2023-03-14T17:42:24;8.13;;;2.67;;
48241;SDS011;34041;51.812;4.622;2023-03-14T17:45:24;5.50;;;2.57;;
48241;SDS011;34041;51.812;4.622;2023-03-14T17:48:24;6.47;;;3.00;;
48241;SDS011;34041;51.812;4.622;2023-03-14T17:51:24;11.37;;;2.60;;
48241;SDS011;34041;51.812;4.622;2023-03-14T17:54:25;10.17;;;2.70;;
48241;SDS011;34041;51.812;4.622;2023-03-14T17:57:25;5.20;;;2.40;;
48241;SDS011;34041;51.812;4.622;2023-03-14T18:00:25;6.13;;;2.33;;
48241;SDS011;34041;51.812;4.622;2023-03-14T18:03:26;6.10;;;2.58;;
48241;SDS011;34041;51.812;4.622;2023-03-14T18:06:26;6.03;;;2.63;;
48241;SDS011;34041;51.812;4.622;2023-03-14T18:09:29;5.53;;;1.92;;
48241;SDS011;34041;51.812;4.622;2023-03-14T18:12:29;5.25;;;2.35;;
48241;SDS011;34041;51.812;4.622;2023-03-14T18:15:29;5.93;;;2.25;;
48241;SDS011;34041;51.812;4.622;2023-03-14T18:18:32;5.35;;;2.05;;
48241;SDS011;34041;51.812;4.622;2023-03-14T18:21:32;8.35;;;2.25;;
48241;SDS011;34041;51.812;4.622;2023-03-14T18:24:35;5.28;;;2.13;;
48241;SDS011;34041;51.812;4.622;2023-03-14T18:27:35;6.33;;;2.17;;
48241;SDS011;34041;51.812;4.622;2023-03-14T18:30:35;6.90;;;2.55;;
48241;SDS011;34041;51.812;4.622;2023-03-14T18:33:36;8.63;;;3.10;;
48241;SDS011;34041;51.812;4.622;2023-03-14T18:36:40;5.40;;;2.65;;
48241;SDS011;34041;51.812;4.622;2023-03-14T18:39:41;7.23;;;2.10;;
48241;SDS011;34041;51.812;4.622;2023-03-14T18:42:41;3.90;;;1.77;;
48241;SDS011;34041;51.812;4.622;2023-03-14T18:45:41;5.85;;;1.90;;
48241;SDS011;34041;51.812;4.622;2023-03-14T18:48:42;4.55;;;1.63;;
48241;SDS011;34041;51.812;4.622;2023-03-14T18:51:42;3.60;;;1.65;;
48241;SDS011;34041;51.812;4.622;2023-03-14T18:54:42;5.60;;;2.00;;
48241;SDS011;34041;51.812;4.622;2023-03-14T18:57:43;5.20;;;1.85;;
48241;SDS011;34041;51.812;4.622;2023-03-14T19:00:43;5.13;;;1.67;;
48241;SDS011;34041;51.812;4.622;2023-03-14T19:03:44;4.97;;;2.70;;